sensor_id;sensor_type;location;lat;lon;timestamp;temperature;humidity
8953;DHT22;4511;50.890;8.054;2023-08-17T00:02:04;20.30;99.90
8953;DHT22;4511;50.890;8.054;2023-08-17T00:04:31;20.40;99.90
8953;DHT22;4511;50.890;8.054;2023-08-17T00:06:58;20.30;99.90
8953;DHT22;4511;50.890;8.054;2023-08-17T00:09:25;20.30;99.90
8953;DHT22;4511;50.890;8.054;2023-08-17T00:11:52;20.30;99.90
8953;DHT22;4511;50.890;8.054;2023-08-17T00:14:21;20.30;99.90
8953;DHT22;4511;50.890;8.054;2023-08-17T00:16:49;20.20;99.90
8953;DHT22;4511;50.890;8.054;2023-08-17T00:19:15;20.20;99.90
8953;DHT22;4511;50.890;8.054;2023-08-17T00:21:43;20.10;99.90
8953;DHT22;4511;50.890;8.054;2023-08-17T00:24:11;20.10;99.90
8953;DHT22;4511;50.890;8.054;2023-08-17T00:26:37;20.20;99.90
8953;DHT22;4511;50.890;8.054;2023-08-17T00:29:04;20.10;99.90
8953;DHT22;4511;50.890;8.054;2023-08-17T00:31:33;20.10;99.90
8953;DHT22;4511;50.890;8.054;2023-08-17T00:33:59;20.10;99.90
8953;DHT22;4511;50.890;8.054;2023-08-17T00:36:26;20.10;99.90
8953;DHT22;4511;50.890;8.054;2023-08-17T00:38:53;20.10;99.90
8953;DHT22;4511;50.890;8.054;2023-08-17T00:41:20;20.00;99.90
8953;DHT22;4511;50.890;8.054;2023-08-17T00:43:46;20.10;99.90
8953;DHT22;4511;50.890;8.054;2023-08-17T00:46:13;20.10;99.90
8953;DHT22;4511;50.890;8.054;2023-08-17T00:48:42;20.00;99.90
8953;DHT22;4511;50.890;8.054;2023-08-17T00:51:10;20.00;99.90
8953;DHT22;4511;50.890;8.054;2023-08-17T00:53:37;19.90;99.90
8953;DHT22;4511;50.890;8.054;2023-08-17T00:56:04;19.90;99.90
8953;DHT22;4511;50.890;8.054;2023-08-17T00:58:31;19.80;99.90
8953;DHT22;4511;50.890;8.054;2023-08-17T01:00:58;19.80;99.90
8953;DHT22;4511;50.890;8.054;2023-08-17T01:03:28;19.70;99.90
8953;DHT22;4511;50.890;8.054;2023-08-17T01:05:56;19.70;99.90
8953;DHT22;4511;50.890;8.054;2023-08-17T01:08:23;19.70;99.90
8953;DHT22;4511;50.890;8.054;2023-08-17T01:10:55;19.70;99.90
8953;DHT22;4511;50.890;8.054;2023-08-17T01:13:28;19.80;99.90
8953;DHT22;4511;50.890;8.054;2023-08-17T01:15:58;19.70;99.90
8953;DHT22;4511;50.890;8.054;2023-08-17T01:18:29;19.70;99.90
8953;DHT22;4511;50.890;8.054;2023-08-17T01:21:00;19.60;99.90
8953;DHT22;4511;50.890;8.054;2023-08-17T01:23:29;19.60;99.90
8953;DHT22;4511;50.890;8.054;2023-08-17T01:25:56;19.60;99.90
8953;DHT22;4511;50.890;8.054;2023-08-17T01:28:23;19.50;99.90
8953;DHT22;4511;50.890;8.054;2023-08-17T01:30:55;19.50;99.90
8953;DHT22;4511;50.890;8.054;2023-08-17T01:33:27;19.40;99.90
8953;DHT22;4511;50.890;8.054;2023-08-17T01:36:01;19.40;99.90
8953;DHT22;4511;50.890;8.054;2023-08-17T01:38:33;19.30;99.90
8953;DHT22;4511;50.890;8.054;2023-08-17T01:41:01;19.20;99.90
8953;DHT22;4511;50.890;8.054;2023-08-17T01:43:28;19.20;99.90
8953;DHT22;4511;50.890;8.054;2023-08-17T01:45:56;19.20;99.90
8953;DHT22;4511;50.890;8.054;2023-08-17T01:48:22;19.20;99.90
8953;DHT22;4511;50.890;8.054;2023-08-17T01:50:49;19.20;99.90
8953;DHT22;4511;50.890;8.054;2023-08-17T01:53:16;19.20;99.90
8953;DHT22;4511;50.890;8.054;2023-08-17T01:55:44;19.10;99.90
8953;DHT22;4511;50.890;8.054;2023-08-17T01:58:11;19.10;99.90
8953;DHT22;4511;50.890;8.054;2023-08-17T02:00:38;19.10;99.90
8953;DHT22;4511;50.890;8.054;2023-08-17T02:03:04;19.00;99.90
8953;DHT22;4511;50.890;8.054;2023-08-17T02:05:31;19.00;99.90
8953;DHT22;4511;50.890;8.054;2023-08-17T02:07:58;19.00;99.90
8953;DHT22;4511;50.890;8.054;2023-08-17T02:10:25;19.00;99.90
8953;DHT22;4511;50.890;8.054;2023-08-17T02:12:53;19.00;99.90
8953;DHT22;4511;50.890;8.054;2023-08-17T02:15:19;18.90;99.90
8953;DHT22;4511;50.890;8.054;2023-08-17T02:17:46;18.80;99.90
8953;DHT22;4511;50.890;8.054;2023-08-17T02:20:13;18.80;99.90
8953;DHT22;4511;50.890;8.054;2023-08-17T02:22:40;18.80;99.90
8953;DHT22;4511;50.890;8.054;2023-08-17T02:25:08;18.80;99.90
8953;DHT22;4511;50.890;8.054;2023-08-17T02:27:33;18.80;99.90
8953;DHT22;4511;50.890;8.054;2023-08-17T02:30:02;18.90;99.90
8953;DHT22;4511;50.890;8.054;2023-08-17T02:32:29;18.80;99.90
8953;DHT22;4511;50.890;8.054;2023-08-17T02:34:56;18.60;99.90
8953;DHT22;4511;50.890;8.054;2023-08-17T02:37:22;18.50;99.90
8953;DHT22;4511;50.890;8.054;2023-08-17T02:39:49;18.60;99.90
8953;DHT22;4511;50.890;8.054;2023-08-17T02:42:16;18.50;99.90
8953;DHT22;4511;50.890;8.054;2023-08-17T02:44:43;18.50;99.90
8953;DHT22;4511;50.890;8.054;2023-08-17T02:47:11;18.70;99.90
8953;DHT22;4511;50.890;8.054;2023-08-17T02:49:37;18.60;99.90
8953;DHT22;4511;50.890;8.054;2023-08-17T02:52:05;18.30;99.90
8953;DHT22;4511;50.890;8.054;2023-08-17T02:54:31;18.40;99.90
8953;DHT22;4511;50.890;8.054;2023-08-17T02:57:00;18.50;99.90
8953;DHT22;4511;50.890;8.054;2023-08-17T02:59:26;18.50;99.90
8953;DHT22;4511;50.890;8.054;2023-08-17T03:01:53;18.60;99.90
8953;DHT22;4511;50.890;8.054;2023-08-17T03:04:22;18.70;99.90
8953;DHT22;4511;50.890;8.054;2023-08-17T03:06:49;18.70;99.90
8953;DHT22;4511;50.890;8.054;2023-08-17T03:09:16;18.40;99.90
8953;DHT22;4511;50.890;8.054;2023-08-17T03:11:43;18.30;99.90
8953;DHT22;4511;50.890;8.054;2023-08-17T03:14:10;18.30;99.90
8953;DHT22;4511;50.890;8.054;2023-08-17T03:16:36;18.40;99.90
8953;DHT22;4511;50.890;8.054;2023-08-17T03:19:03;18.40;99.90
8953;DHT22;4511;50.890;8.054;2023-08-17T03:21:34;18.50;99.90
8953;DHT22;4511;50.890;8.054;2023-08-17T03:24:01;18.50;99.90
8953;DHT22;4511;50.890;8.054;2023-08-17T03:26:28;18.50;99.90
8953;DHT22;4511;50.890;8.054;2023-08-17T03:28:54;18.60;99.90
8953;DHT22;4511;50.890;8.054;2023-08-17T03:31:21;18.40;99.90
8953;DHT22;4511;50.890;8.054;2023-08-17T03:33:48;18.40;99.90
8953;DHT22;4511;50.890;8.054;2023-08-17T03:36:15;18.50;99.90
8953;DHT22;4511;50.890;8.054;2023-08-17T03:38:43;18.50;99.90
8953;DHT22;4511;50.890;8.054;2023-08-17T03:41:10;18.60;99.90
8953;DHT22;4511;50.890;8.054;2023-08-17T03:43:37;18.70;99.90
8953;DHT22;4511;50.890;8.054;2023-08-17T03:46:04;18.70;99.90
8953;DHT22;4511;50.890;8.054;2023-08-17T03:48:31;18.80;99.90
8953;DHT22;4511;50.890;8.054;2023-08-17T03:50:58;18.80;99.90
8953;DHT22;4511;50.890;8.054;2023-08-17T03:53:24;18.80;99.90
8953;DHT22;4511;50.890;8.054;2023-08-17T03:55:52;18.80;99.90
8953;DHT22;4511;50.890;8.054;2023-08-17T03:58:19;18.80;99.90
8953;DHT22;4511;50.890;8.054;2023-08-17T04:00:49;18.80;99.90
8953;DHT22;4511;50.890;8.054;2023-08-17T04:03:16;19.00;99.90
8953;DHT22;4511;50.890;8.054;2023-08-17T04:05:42;19.20;99.90
8953;DHT22;4511;50.890;8.054;2023-08-17T04:08:09;19.30;99.90
8953;DHT22;4511;50.890;8.054;2023-08-17T04:10:36;19.30;99.90
8953;DHT22;4511;50.890;8.054;2023-08-17T04:13:05;19.10;99.90
8953;DHT22;4511;50.890;8.054;2023-08-17T04:15:31;19.00;99.90
8953;DHT22;4511;50.890;8.054;2023-08-17T04:17:58;19.00;99.90
8953;DHT22;4511;50.890;8.054;2023-08-17T04:20:25;19.00;99.90
8953;DHT22;4511;50.890;8.054;2023-08-17T04:22:52;19.00;99.90
8953;DHT22;4511;50.890;8.054;2023-08-17T04:25:19;19.00;99.90
8953;DHT22;4511;50.890;8.054;2023-08-17T04:27:46;19.00;99.90
8953;DHT22;4511;50.890;8.054;2023-08-17T04:30:14;18.90;99.90
8953;DHT22;4511;50.890;8.054;2023-08-17T04:32:41;19.00;99.90
8953;DHT22;4511;50.890;8.054;2023-08-17T04:35:08;19.00;99.90
8953;DHT22;4511;50.890;8.054;2023-08-17T04:37:35;19.00;99.90
8953;DHT22;4511;50.890;8.054;2023-08-17T04:40:02;19.00;99.90
8953;DHT22;4511;50.890;8.054;2023-08-17T04:42:30;19.00;99.90
8953;DHT22;4511;50.890;8.054;2023-08-17T04:44:57;18.80;99.90
8953;DHT22;4511;50.890;8.054;2023-08-17T04:47:25;18.80;99.90
8953;DHT22;4511;50.890;8.054;2023-08-17T04:49:52;18.80;99.90
8953;DHT22;4511;50.890;8.054;2023-08-17T04:52:19;18.70;99.90
8953;DHT22;4511;50.890;8.054;2023-08-17T04:54:45;18.70;99.90
8953;DHT22;4511;50.890;8.054;2023-08-17T04:57:12;18.70;99.90
8953;DHT22;4511;50.890;8.054;2023-08-17T04:59:39;18.60;99.90
8953;DHT22;4511;50.890;8.054;2023-08-17T05:02:06;18.50;99.90
8953;DHT22;4511;50.890;8.054;2023-08-17T05:04:35;18.50;99.90
8953;DHT22;4511;50.890;8.054;2023-08-17T05:07:02;18.70;99.90
8953;DHT22;4511;50.890;8.054;2023-08-17T05:09:28;18.80;99.90
8953;DHT22;4511;50.890;8.054;2023-08-17T05:11:55;18.80;99.90
8953;DHT22;4511;50.890;8.054;2023-08-17T05:14:22;18.90;99.90
8953;DHT22;4511;50.890;8.054;2023-08-17T05:16:49;18.80;99.90
8953;DHT22;4511;50.890;8.054;2023-08-17T05:19:16;18.90;99.90
8953;DHT22;4511;50.890;8.054;2023-08-17T05:21:44;19.00;99.90
8953;DHT22;4511;50.890;8.054;2023-08-17T05:24:11;19.00;99.90
8953;DHT22;4511;50.890;8.054;2023-08-17T05:26:38;19.00;99.90
8953;DHT22;4511;50.890;8.054;2023-08-17T05:29:05;19.00;99.90
8953;DHT22;4511;50.890;8.054;2023-08-17T05:31:31;19.00;99.90
8953;DHT22;4511;50.890;8.054;2023-08-17T05:33:58;19.00;99.90
8953;DHT22;4511;50.890;8.054;2023-08-17T05:36:25;19.00;99.90
8953;DHT22;4511;50.890;8.054;2023-08-17T05:38:55;19.10;99.90
8953;DHT22;4511;50.890;8.054;2023-08-17T05:41:22;19.10;99.90
8953;DHT22;4511;50.890;8.054;2023-08-17T05:43:48;19.10;99.90
8953;DHT22;4511;50.890;8.054;2023-08-17T05:46:15;19.20;99.90
8953;DHT22;4511;50.890;8.054;2023-08-17T05:48:42;19.10;99.90
8953;DHT22;4511;50.890;8.054;2023-08-17T05:51:09;19.20;99.90
8953;DHT22;4511;50.890;8.054;2023-08-17T05:53:35;19.20;99.90
8953;DHT22;4511;50.890;8.054;2023-08-17T05:56:03;19.30;99.90
8953;DHT22;4511;50.890;8.054;2023-08-17T05:58:30;19.30;99.90
8953;DHT22;4511;50.890;8.054;2023-08-17T06:01:04;19.30;99.90
8953;DHT22;4511;50.890;8.054;2023-08-17T06:03:31;19.30;99.90
8953;DHT22;4511;50.890;8.054;2023-08-17T06:05:58;19.40;99.90
8953;DHT22;4511;50.890;8.054;2023-08-17T06:08:25;19.30;99.90
8953;DHT22;4511;50.890;8.054;2023-08-17T06:10:52;19.40;99.90
8953;DHT22;4511;50.890;8.054;2023-08-17T06:13:21;19.40;99.90
8953;DHT22;4511;50.890;8.054;2023-08-17T06:15:47;19.40;99.90
8953;DHT22;4511;50.890;8.054;2023-08-17T06:18:14;19.50;99.90
8953;DHT22;4511;50.890;8.054;2023-08-17T06:20:41;19.60;99.90
8953;DHT22;4511;50.890;8.054;2023-08-17T06:23:08;19.60;99.90
8953;DHT22;4511;50.890;8.054;2023-08-17T06:25:35;19.60;99.90
8953;DHT22;4511;50.890;8.054;2023-08-17T06:28:02;19.50;99.90
8953;DHT22;4511;50.890;8.054;2023-08-17T06:30:30;19.60;99.90
8953;DHT22;4511;50.890;8.054;2023-08-17T06:32:57;19.60;99.90
8953;DHT22;4511;50.890;8.054;2023-08-17T06:35:24;19.60;99.90
8953;DHT22;4511;50.890;8.054;2023-08-17T06:37:51;19.60;99.90
8953;DHT22;4511;50.890;8.054;2023-08-17T06:40:22;19.70;99.90
8953;DHT22;4511;50.890;8.054;2023-08-17T06:42:48;19.70;99.90
8953;DHT22;4511;50.890;8.054;2023-08-17T06:45:15;19.60;99.90
8953;DHT22;4511;50.890;8.054;2023-08-17T06:47:45;19.70;99.90
8953;DHT22;4511;50.890;8.054;2023-08-17T06:50:14;19.70;99.90
8953;DHT22;4511;50.890;8.054;2023-08-17T06:52:40;19.70;99.90
8953;DHT22;4511;50.890;8.054;2023-08-17T06:55:08;19.80;99.90
8953;DHT22;4511;50.890;8.054;2023-08-17T06:57:36;19.90;99.90
8953;DHT22;4511;50.890;8.054;2023-08-17T07:00:03;19.80;99.90
8953;DHT22;4511;50.890;8.054;2023-08-17T07:02:31;19.90;99.90
8953;DHT22;4511;50.890;8.054;2023-08-17T07:04:59;20.00;99.90
8953;DHT22;4511;50.890;8.054;2023-08-17T07:07:26;20.00;99.90
8953;DHT22;4511;50.890;8.054;2023-08-17T07:09:53;20.10;99.90
8953;DHT22;4511;50.890;8.054;2023-08-17T07:12:20;20.20;99.90
8953;DHT22;4511;50.890;8.054;2023-08-17T07:14:47;20.20;99.90
8953;DHT22;4511;50.890;8.054;2023-08-17T07:17:13;20.30;99.90
8953;DHT22;4511;50.890;8.054;2023-08-17T07:19:40;20.30;99.90
8953;DHT22;4511;50.890;8.054;2023-08-17T07:22:09;20.40;99.90
8953;DHT22;4511;50.890;8.054;2023-08-17T07:24:36;20.40;99.90
8953;DHT22;4511;50.890;8.054;2023-08-17T07:27:03;20.30;99.90
8953;DHT22;4511;50.890;8.054;2023-08-17T07:29:30;20.40;99.90
8953;DHT22;4511;50.890;8.054;2023-08-17T07:31:57;20.40;99.90
8953;DHT22;4511;50.890;8.054;2023-08-17T07:34:26;20.40;99.90
8953;DHT22;4511;50.890;8.054;2023-08-17T07:36:53;20.50;99.90
8953;DHT22;4511;50.890;8.054;2023-08-17T07:39:21;20.50;99.90
8953;DHT22;4511;50.890;8.054;2023-08-17T07:41:48;20.60;99.90
8953;DHT22;4511;50.890;8.054;2023-08-17T07:44:15;20.60;99.90
8953;DHT22;4511;50.890;8.054;2023-08-17T07:46:42;20.70;99.90
8953;DHT22;4511;50.890;8.054;2023-08-17T07:49:08;20.80;99.90
8953;DHT22;4511;50.890;8.054;2023-08-17T07:51:35;20.80;99.90
8953;DHT22;4511;50.890;8.054;2023-08-17T07:54:02;20.80;99.90
8953;DHT22;4511;50.890;8.054;2023-08-17T07:56:30;20.90;99.90
8953;DHT22;4511;50.890;8.054;2023-08-17T07:58:57;20.80;99.90
8953;DHT22;4511;50.890;8.054;2023-08-17T08:01:24;20.90;99.90
8953;DHT22;4511;50.890;8.054;2023-08-17T08:03:51;20.90;99.90
8953;DHT22;4511;50.890;8.054;2023-08-17T08:06:18;21.00;99.90
8953;DHT22;4511;50.890;8.054;2023-08-17T08:08:46;21.10;99.90
8953;DHT22;4511;50.890;8.054;2023-08-17T08:11:12;21.20;99.90
8953;DHT22;4511;50.890;8.054;2023-08-17T08:13:41;21.20;99.90
8953;DHT22;4511;50.890;8.054;2023-08-17T08:16:07;21.10;99.90
8953;DHT22;4511;50.890;8.054;2023-08-17T08:18:34;21.10;99.90
8953;DHT22;4511;50.890;8.054;2023-08-17T08:21:01;21.10;99.90
8953;DHT22;4511;50.890;8.054;2023-08-17T08:23:28;20.90;99.90
8953;DHT22;4511;50.890;8.054;2023-08-17T08:25:55;20.60;99.90
8953;DHT22;4511;50.890;8.054;2023-08-17T08:28:23;20.60;99.90
8953;DHT22;4511;50.890;8.054;2023-08-17T08:30:52;20.60;99.90
8953;DHT22;4511;50.890;8.054;2023-08-17T08:33:19;20.70;99.90
8953;DHT22;4511;50.890;8.054;2023-08-17T08:35:45;20.70;99.90
8953;DHT22;4511;50.890;8.054;2023-08-17T08:38:14;20.80;99.90
8953;DHT22;4511;50.890;8.054;2023-08-17T08:40:41;20.70;99.90
8953;DHT22;4511;50.890;8.054;2023-08-17T08:43:08;20.70;99.90
8953;DHT22;4511;50.890;8.054;2023-08-17T08:45:36;20.90;99.90
8953;DHT22;4511;50.890;8.054;2023-08-17T08:48:05;21.00;99.90
8953;DHT22;4511;50.890;8.054;2023-08-17T08:50:35;21.00;99.90
8953;DHT22;4511;50.890;8.054;2023-08-17T08:53:03;21.00;99.90
8953;DHT22;4511;50.890;8.054;2023-08-17T08:55:36;20.90;99.90
8953;DHT22;4511;50.890;8.054;2023-08-17T08:58:04;21.00;99.90
8953;DHT22;4511;50.890;8.054;2023-08-17T09:00:32;21.10;99.90
8953;DHT22;4511;50.890;8.054;2023-08-17T09:03:00;21.20;99.90
8953;DHT22;4511;50.890;8.054;2023-08-17T09:05:31;21.20;99.90
8953;DHT22;4511;50.890;8.054;2023-08-17T09:08:00;21.40;99.90
8953;DHT22;4511;50.890;8.054;2023-08-17T09:10:28;21.50;99.90
8953;DHT22;4511;50.890;8.054;2023-08-17T09:12:55;21.80;99.90
8953;DHT22;4511;50.890;8.054;2023-08-17T09:15:21;21.80;99.90
8953;DHT22;4511;50.890;8.054;2023-08-17T09:17:48;21.80;99.90
8953;DHT22;4511;50.890;8.054;2023-08-17T09:20:37;21.80;99.90
8953;DHT22;4511;50.890;8.054;2023-08-17T09:23:09;21.70;99.90
8953;DHT22;4511;50.890;8.054;2023-08-17T09:25:38;21.80;99.90
8953;DHT22;4511;50.890;8.054;2023-08-17T09:28:07;21.90;99.90
8953;DHT22;4511;50.890;8.054;2023-08-17T09:30:52;21.80;99.90
8953;DHT22;4511;50.890;8.054;2023-08-17T09:33:20;21.80;99.90
8953;DHT22;4511;50.890;8.054;2023-08-17T09:35:49;21.70;99.90
8953;DHT22;4511;50.890;8.054;2023-08-17T09:38:16;21.80;99.90
8953;DHT22;4511;50.890;8.054;2023-08-17T09:40:43;21.80;99.90
8953;DHT22;4511;50.890;8.054;2023-08-17T09:43:10;21.80;99.90
8953;DHT22;4511;50.890;8.054;2023-08-17T09:45:38;21.90;99.90
8953;DHT22;4511;50.890;8.054;2023-08-17T09:48:06;22.00;99.90
8953;DHT22;4511;50.890;8.054;2023-08-17T09:50:33;22.10;99.90
8953;DHT22;4511;50.890;8.054;2023-08-17T09:53:02;21.90;99.90
8953;DHT22;4511;50.890;8.054;2023-08-17T09:55:30;22.00;99.90
8953;DHT22;4511;50.890;8.054;2023-08-17T09:57:58;22.00;99.90
8953;DHT22;4511;50.890;8.054;2023-08-17T10:00:27;22.10;99.90
8953;DHT22;4511;50.890;8.054;2023-08-17T10:02:55;22.30;99.90
8953;DHT22;4511;50.890;8.054;2023-08-17T10:05:27;22.50;99.90
8953;DHT22;4511;50.890;8.054;2023-08-17T10:07:57;22.60;99.90
8953;DHT22;4511;50.890;8.054;2023-08-17T10:10:29;22.60;99.90
8953;DHT22;4511;50.890;8.054;2023-08-17T10:13:03;22.90;99.90
8953;DHT22;4511;50.890;8.054;2023-08-17T10:15:35;22.90;99.90
8953;DHT22;4511;50.890;8.054;2023-08-17T10:18:12;23.10;99.90
8953;DHT22;4511;50.890;8.054;2023-08-17T10:20:43;23.10;99.90
8953;DHT22;4511;50.890;8.054;2023-08-17T10:23:14;23.00;99.90
8953;DHT22;4511;50.890;8.054;2023-08-17T10:25:44;22.50;99.90
8953;DHT22;4511;50.890;8.054;2023-08-17T10:28:11;22.70;99.90
8953;DHT22;4511;50.890;8.054;2023-08-17T10:30:39;22.50;99.90
8953;DHT22;4511;50.890;8.054;2023-08-17T10:33:06;22.50;99.90
8953;DHT22;4511;50.890;8.054;2023-08-17T10:35:34;22.60;99.90
8953;DHT22;4511;50.890;8.054;2023-08-17T10:38:03;22.50;99.90
8953;DHT22;4511;50.890;8.054;2023-08-17T10:40:35;22.40;99.90
8953;DHT22;4511;50.890;8.054;2023-08-17T10:43:04;22.70;99.90
8953;DHT22;4511;50.890;8.054;2023-08-17T10:45:31;23.40;99.90
8953;DHT22;4511;50.890;8.054;2023-08-17T10:50:59;24.50;99.90
8953;DHT22;4511;50.890;8.054;2023-08-17T10:53:26;24.70;99.90
8953;DHT22;4511;50.890;8.054;2023-08-17T10:55:58;24.90;99.90
8953;DHT22;4511;50.890;8.054;2023-08-17T10:58:30;25.20;99.90
8953;DHT22;4511;50.890;8.054;2023-08-17T11:00:58;25.50;99.90
8953;DHT22;4511;50.890;8.054;2023-08-17T11:03:24;25.50;99.90
8953;DHT22;4511;50.890;8.054;2023-08-17T11:05:52;25.90;99.90
8953;DHT22;4511;50.890;8.054;2023-08-17T11:08:22;26.20;99.90
8953;DHT22;4511;50.890;8.054;2023-08-17T11:10:58;26.00;99.90
8953;DHT22;4511;50.890;8.054;2023-08-17T11:13:28;25.60;99.90
8953;DHT22;4511;50.890;8.054;2023-08-17T11:15:58;25.20;99.90
8953;DHT22;4511;50.890;8.054;2023-08-17T11:18:25;25.10;99.90
8953;DHT22;4511;50.890;8.054;2023-08-17T11:20:52;24.80;99.90
8953;DHT22;4511;50.890;8.054;2023-08-17T11:23:20;24.60;99.90
8953;DHT22;4511;50.890;8.054;2023-08-17T11:25:47;24.80;99.90
8953;DHT22;4511;50.890;8.054;2023-08-17T11:28:14;24.90;99.90
8953;DHT22;4511;50.890;8.054;2023-08-17T11:30:43;24.60;99.90
8953;DHT22;4511;50.890;8.054;2023-08-17T11:33:10;24.40;99.90
8953;DHT22;4511;50.890;8.054;2023-08-17T11:35:37;24.40;99.90
8953;DHT22;4511;50.890;8.054;2023-08-17T11:38:05;24.20;99.90
8953;DHT22;4511;50.890;8.054;2023-08-17T11:40:32;24.40;99.90
8953;DHT22;4511;50.890;8.054;2023-08-17T11:43:00;24.60;99.90
8953;DHT22;4511;50.890;8.054;2023-08-17T11:45:27;24.70;99.90
8953;DHT22;4511;50.890;8.054;2023-08-17T11:47:55;24.60;99.90
8953;DHT22;4511;50.890;8.054;2023-08-17T11:50:24;24.80;99.90
8953;DHT22;4511;50.890;8.054;2023-08-17T11:52:52;25.30;99.90
8953;DHT22;4511;50.890;8.054;2023-08-17T11:55:19;25.80;99.90
8953;DHT22;4511;50.890;8.054;2023-08-17T11:57:46;25.70;99.90
8953;DHT22;4511;50.890;8.054;2023-08-17T12:00:18;25.70;99.90
8953;DHT22;4511;50.890;8.054;2023-08-17T12:02:47;25.70;99.90
8953;DHT22;4511;50.890;8.054;2023-08-17T12:05:19;25.70;99.90
8953;DHT22;4511;50.890;8.054;2023-08-17T12:07:45;25.80;99.90
8953;DHT22;4511;50.890;8.054;2023-08-17T12:10:11;25.90;99.90
8953;DHT22;4511;50.890;8.054;2023-08-17T12:12:38;26.20;99.90
8953;DHT22;4511;50.890;8.054;2023-08-17T12:15:06;26.30;99.90
8953;DHT22;4511;50.890;8.054;2023-08-17T12:17:33;26.60;99.90
8953;DHT22;4511;50.890;8.054;2023-08-17T12:20:00;26.80;99.90
8953;DHT22;4511;50.890;8.054;2023-08-17T12:22:28;26.80;99.90
8953;DHT22;4511;50.890;8.054;2023-08-17T12:24:55;26.90;99.90
8953;DHT22;4511;50.890;8.054;2023-08-17T12:27:22;26.50;99.90
8953;DHT22;4511;50.890;8.054;2023-08-17T12:29:51;26.70;99.90
8953;DHT22;4511;50.890;8.054;2023-08-17T12:32:19;26.60;99.90
8953;DHT22;4511;50.890;8.054;2023-08-17T12:34:46;26.50;99.90
8953;DHT22;4511;50.890;8.054;2023-08-17T12:37:19;26.60;99.90
8953;DHT22;4511;50.890;8.054;2023-08-17T12:39:48;26.80;99.90
8953;DHT22;4511;50.890;8.054;2023-08-17T12:42:15;26.70;99.90
8953;DHT22;4511;50.890;8.054;2023-08-17T12:44:42;26.70;99.90
8953;DHT22;4511;50.890;8.054;2023-08-17T12:47:09;26.50;99.90
8953;DHT22;4511;50.890;8.054;2023-08-17T12:49:36;26.20;99.90
8953;DHT22;4511;50.890;8.054;2023-08-17T12:52:03;26.30;99.90
8953;DHT22;4511;50.890;8.054;2023-08-17T12:54:30;26.80;99.90
8953;DHT22;4511;50.890;8.054;2023-08-17T12:56:58;27.20;99.90
8953;DHT22;4511;50.890;8.054;2023-08-17T12:59:27;27.10;99.90
8953;DHT22;4511;50.890;8.054;2023-08-17T13:01:53;27.10;99.90
8953;DHT22;4511;50.890;8.054;2023-08-17T13:04:20;27.50;99.90
8953;DHT22;4511;50.890;8.054;2023-08-17T13:06:47;27.80;99.90
8953;DHT22;4511;50.890;8.054;2023-08-17T13:09:16;28.40;99.90
8953;DHT22;4511;50.890;8.054;2023-08-17T13:11:44;28.70;99.90
8953;DHT22;4511;50.890;8.054;2023-08-17T13:14:12;28.30;99.90
8953;DHT22;4511;50.890;8.054;2023-08-17T13:16:39;28.60;99.90
8953;DHT22;4511;50.890;8.054;2023-08-17T13:19:06;29.20;99.90
8953;DHT22;4511;50.890;8.054;2023-08-17T13:21:33;29.00;99.90
8953;DHT22;4511;50.890;8.054;2023-08-17T13:23:59;29.20;99.90
8953;DHT22;4511;50.890;8.054;2023-08-17T13:26:28;29.00;99.90
8953;DHT22;4511;50.890;8.054;2023-08-17T13:28:55;28.60;99.90
8953;DHT22;4511;50.890;8.054;2023-08-17T13:31:23;28.60;99.90
8953;DHT22;4511;50.890;8.054;2023-08-17T13:33:50;27.80;99.90
8953;DHT22;4511;50.890;8.054;2023-08-17T13:36:17;27.40;99.90
8953;DHT22;4511;50.890;8.054;2023-08-17T13:38:44;26.80;99.90
8953;DHT22;4511;50.890;8.054;2023-08-17T13:41:11;26.60;99.90
8953;DHT22;4511;50.890;8.054;2023-08-17T13:43:38;26.60;99.90
8953;DHT22;4511;50.890;8.054;2023-08-17T13:46:05;26.50;99.90
8953;DHT22;4511;50.890;8.054;2023-08-17T13:48:33;26.50;99.90
8953;DHT22;4511;50.890;8.054;2023-08-17T13:50:59;26.60;99.90
8953;DHT22;4511;50.890;8.054;2023-08-17T13:53:26;26.90;99.90
8953;DHT22;4511;50.890;8.054;2023-08-17T13:55:53;27.30;99.90
8953;DHT22;4511;50.890;8.054;2023-08-17T13:58:20;28.00;99.90
8953;DHT22;4511;50.890;8.054;2023-08-17T14:00:46;28.50;99.90
8953;DHT22;4511;50.890;8.054;2023-08-17T14:03:13;29.00;99.90
8953;DHT22;4511;50.890;8.054;2023-08-17T14:05:41;29.00;99.90
8953;DHT22;4511;50.890;8.054;2023-08-17T14:08:10;29.90;99.90
8953;DHT22;4511;50.890;8.054;2023-08-17T14:10:37;30.10;99.90
8953;DHT22;4511;50.890;8.054;2023-08-17T14:13:04;29.80;99.90
8953;DHT22;4511;50.890;8.054;2023-08-17T14:15:30;29.30;99.90
8953;DHT22;4511;50.890;8.054;2023-08-17T14:17:57;28.80;99.90
8953;DHT22;4511;50.890;8.054;2023-08-17T14:20:24;28.70;99.90
8953;DHT22;4511;50.890;8.054;2023-08-17T14:22:53;28.70;99.90
8953;DHT22;4511;50.890;8.054;2023-08-17T14:25:19;28.60;99.90
8953;DHT22;4511;50.890;8.054;2023-08-17T14:27:46;28.30;99.90
8953;DHT22;4511;50.890;8.054;2023-08-17T14:30:13;28.30;99.90
8953;DHT22;4511;50.890;8.054;2023-08-17T14:32:40;28.50;99.90
8953;DHT22;4511;50.890;8.054;2023-08-17T14:35:07;29.30;99.90
8953;DHT22;4511;50.890;8.054;2023-08-17T14:37:34;30.10;99.90
8953;DHT22;4511;50.890;8.054;2023-08-17T14:40:02;30.00;99.90
8953;DHT22;4511;50.890;8.054;2023-08-17T14:42:29;29.90;99.90
8953;DHT22;4511;50.890;8.054;2023-08-17T14:44:56;29.40;99.90
8953;DHT22;4511;50.890;8.054;2023-08-17T14:47:22;29.30;99.90
8953;DHT22;4511;50.890;8.054;2023-08-17T14:49:48;29.10;99.90
8953;DHT22;4511;50.890;8.054;2023-08-17T14:52:15;28.70;99.90
8953;DHT22;4511;50.890;8.054;2023-08-17T14:54:42;28.70;99.90
8953;DHT22;4511;50.890;8.054;2023-08-17T14:57:10;29.90;99.90
8953;DHT22;4511;50.890;8.054;2023-08-17T14:59:36;29.50;99.90
8953;DHT22;4511;50.890;8.054;2023-08-17T15:02:03;29.20;99.90
8953;DHT22;4511;50.890;8.054;2023-08-17T15:04:30;30.00;99.90
8953;DHT22;4511;50.890;8.054;2023-08-17T15:06:58;30.90;99.90
8953;DHT22;4511;50.890;8.054;2023-08-17T15:09:24;31.30;99.90
8953;DHT22;4511;50.890;8.054;2023-08-17T15:11:52;31.70;99.90
8953;DHT22;4511;50.890;8.054;2023-08-17T15:14:20;32.70;99.10
8953;DHT22;4511;50.890;8.054;2023-08-17T15:16:46;32.90;97.90
8953;DHT22;4511;50.890;8.054;2023-08-17T15:19:13;33.50;95.90
8953;DHT22;4511;50.890;8.054;2023-08-17T15:21:40;33.90;94.70
8953;DHT22;4511;50.890;8.054;2023-08-17T15:24:07;34.10;93.50
8953;DHT22;4511;50.890;8.054;2023-08-17T15:26:34;33.80;91.30
8953;DHT22;4511;50.890;8.054;2023-08-17T15:29:00;33.50;91.20
8953;DHT22;4511;50.890;8.054;2023-08-17T15:31:29;33.40;91.40
8953;DHT22;4511;50.890;8.054;2023-08-17T15:33:55;33.80;92.20
8953;DHT22;4511;50.890;8.054;2023-08-17T15:36:22;34.00;91.10
8953;DHT22;4511;50.890;8.054;2023-08-17T15:38:51;34.10;90.30
8953;DHT22;4511;50.890;8.054;2023-08-17T15:41:18;34.00;90.10
8953;DHT22;4511;50.890;8.054;2023-08-17T15:43:45;33.90;89.70
8953;DHT22;4511;50.890;8.054;2023-08-17T15:46:12;34.10;90.50
8953;DHT22;4511;50.890;8.054;2023-08-17T15:48:40;34.30;88.50
8953;DHT22;4511;50.890;8.054;2023-08-17T15:51:07;34.60;86.60
8953;DHT22;4511;50.890;8.054;2023-08-17T15:53:33;34.70;87.80
8953;DHT22;4511;50.890;8.054;2023-08-17T15:56:04;34.40;85.00
8953;DHT22;4511;50.890;8.054;2023-08-17T15:58:31;34.60;86.20
8953;DHT22;4511;50.890;8.054;2023-08-17T16:00:58;34.50;85.80
8953;DHT22;4511;50.890;8.054;2023-08-17T16:03:24;34.40;85.30
8953;DHT22;4511;50.890;8.054;2023-08-17T16:05:52;33.90;84.20
8953;DHT22;4511;50.890;8.054;2023-08-17T16:08:19;33.70;86.00